createdAt,value
2023-05-14T00:01:28.964Z,12.67
2023-05-14T00:03:55.539Z,12.65
2023-05-14T00:06:22.079Z,12.64
2023-05-14T00:08:48.525Z,12.61
2023-05-14T00:11:16.428Z,12.58
2023-05-14T00:13:42.967Z,12.48
2023-05-14T00:16:09.508Z,12.49
2023-05-14T00:18:36.072Z,12.45
2023-05-14T00:21:03.140Z,12.48
2023-05-14T00:23:29.612Z,12.41
2023-05-14T00:25:56.164Z,12.43
2023-05-14T00:28:22.629Z,12.41
2023-05-14T00:30:49.170Z,12.38
2023-05-14T00:33:15.952Z,12.36
2023-05-14T00:35:42.451Z,12.34
2023-05-14T00:38:09.016Z,12.34
2023-05-14T00:40:35.563Z,12.31
2023-05-14T00:43:02.036Z,12.30
2023-05-14T00:45:28.746Z,12.28
2023-05-14T00:47:55.744Z,12.24
2023-05-14T00:50:23.212Z,12.19
2023-05-14T00:52:49.888Z,12.21
2023-05-14T00:55:16.720Z,12.16
2023-05-14T00:57:43.846Z,12.15
2023-05-14T01:00:10.877Z,12.17
2023-05-14T01:02:37.460Z,12.13
2023-05-14T01:05:04.472Z,12.12
2023-05-14T01:07:48.426Z,12.08
2023-05-14T01:10:23.758Z,11.97
2023-05-14T01:12:59.204Z,11.99
2023-05-14T01:15:30.688Z,11.91
2023-05-14T01:18:01.781Z,11.91
2023-05-14T01:20:28.302Z,11.86
2023-05-14T01:22:54.731Z,11.86
2023-05-14T01:25:21.261Z,11.82
2023-05-14T01:28:06.385Z,11.81
2023-05-14T01:30:36.710Z,11.82
2023-05-14T01:33:13.206Z,11.80
2023-05-14T01:35:40.420Z,11.75
2023-05-14T01:38:11.695Z,11.73
2023-05-14T01:40:38.532Z,11.72
2023-05-14T01:43:05.248Z,11.69
2023-05-14T01:45:35.172Z,11.68
2023-05-14T01:48:01.733Z,11.66
2023-05-14T01:50:28.232Z,11.65
2023-05-14T01:52:56.607Z,11.61
2023-05-14T01:55:24.495Z,11.60
2023-05-14T01:57:54.434Z,11.60
2023-05-14T02:00:24.169Z,11.60
2023-05-14T02:02:51.249Z,11.54
2023-05-14T02:05:17.828Z,11.56
2023-05-14T02:07:44.578Z,11.50
2023-05-14T02:10:11.408Z,11.46
2023-05-14T02:12:37.879Z,11.47
2023-05-14T02:15:04.803Z,11.46
2023-05-14T02:17:31.350Z,11.44
2023-05-14T02:19:58.331Z,11.46
2023-05-14T02:22:24.773Z,11.45
2023-05-14T02:24:51.481Z,11.44
2023-05-14T02:27:18.002Z,11.39
2023-05-14T02:29:44.728Z,11.38
2023-05-14T02:32:11.498Z,11.35
2023-05-14T02:34:38.658Z,11.36
2023-05-14T02:37:05.256Z,11.34
2023-05-14T02:39:31.844Z,11.33
2023-05-14T02:41:58.325Z,11.31
2023-05-14T02:44:24.804Z,11.24
2023-05-14T02:46:51.698Z,11.25
2023-05-14T02:49:18.243Z,11.27
2023-05-14T02:51:44.684Z,11.26
2023-05-14T02:54:11.209Z,11.25
2023-05-14T02:56:37.690Z,11.23
2023-05-14T02:59:04.334Z,11.19
2023-05-14T03:01:31.361Z,11.19
2023-05-14T03:03:58.250Z,11.19
2023-05-14T03:06:24.730Z,11.18
2023-05-14T03:08:51.269Z,11.14
2023-05-14T03:11:17.973Z,11.12
2023-05-14T03:13:44.440Z,11.10
2023-05-14T03:16:11.402Z,11.06
2023-05-14T03:18:37.948Z,11.09
2023-05-14T03:21:04.571Z,11.07
2023-05-14T03:23:32.003Z,11.04
2023-05-14T03:25:58.757Z,11.03
2023-05-14T03:28:25.944Z,10.99
2023-05-14T03:30:52.570Z,11.03
2023-05-14T03:33:19.064Z,10.96
2023-05-14T03:35:45.560Z,10.94
2023-05-14T03:38:12.026Z,10.95
2023-05-14T03:40:38.563Z,10.89
2023-05-14T03:43:05.021Z,10.92
2023-05-14T03:45:32.276Z,10.94
2023-05-14T03:47:58.817Z,10.89
2023-05-14T03:50:25.783Z,10.92
2023-05-14T03:52:52.714Z,10.90
2023-05-14T03:55:22.164Z,10.85
2023-05-14T03:57:48.737Z,10.85
2023-05-14T04:00:16.015Z,10.87
2023-05-14T04:02:42.776Z,10.89
2023-05-14T04:05:09.633Z,10.89
2023-05-14T04:07:36.285Z,10.90
2023-05-14T04:10:04.703Z,10.87
2023-05-14T04:12:31.457Z,10.87
2023-05-14T04:14:58.637Z,10.87
2023-05-14T04:17:25.707Z,10.87
2023-05-14T04:19:52.298Z,10.90
2023-05-14T04:22:18.813Z,10.92
2023-05-14T04:24:45.276Z,10.93
2023-05-14T04:27:11.782Z,10.92
2023-05-14T04:29:38.294Z,10.92
2023-05-14T04:32:05.236Z,10.92
2023-05-14T04:34:31.714Z,10.94
2023-05-14T04:36:58.192Z,10.93
2023-05-14T04:39:24.784Z,10.95
2023-05-14T04:41:51.326Z,10.98
2023-05-14T04:44:17.860Z,10.98
2023-05-14T04:46:44.331Z,11.01
2023-05-14T04:49:10.764Z,11.03
2023-05-14T04:51:37.240Z,11.07
2023-05-14T04:54:03.962Z,11.11
2023-05-14T04:56:30.551Z,11.16
2023-05-14T04:58:57.023Z,11.23
2023-05-14T05:01:23.660Z,11.35
2023-05-14T05:03:50.851Z,11.37
2023-05-14T05:06:17.386Z,11.41
2023-05-14T05:08:43.879Z,11.44
2023-05-14T05:11:10.398Z,11.49
2023-05-14T05:13:36.825Z,11.53
2023-05-14T05:16:03.385Z,11.57
2023-05-14T05:18:29.873Z,11.65
2023-05-14T05:20:56.487Z,11.62
2023-05-14T05:23:22.985Z,11.64
2023-05-14T05:25:50.391Z,11.70
2023-05-14T05:28:16.951Z,11.71
2023-05-14T05:30:45.177Z,11.76
2023-05-14T05:33:12.444Z,11.80
2023-05-14T05:35:39.028Z,11.83
2023-05-14T05:38:05.573Z,11.86
2023-05-14T05:40:32.072Z,11.95
2023-05-14T05:42:58.544Z,12.03
2023-05-14T05:45:25.010Z,12.04
2023-05-14T05:47:51.588Z,12.04
2023-05-14T05:50:19.776Z,12.05
2023-05-14T05:52:46.693Z,12.00
2023-05-14T05:55:13.606Z,11.99
2023-05-14T05:57:40.085Z,11.99
2023-05-14T06:00:13.291Z,11.98
2023-05-14T06:02:41.189Z,11.96
2023-05-14T06:05:09.664Z,11.98
2023-05-14T06:07:36.489Z,11.94
2023-05-14T06:10:03.376Z,11.97
2023-05-14T06:12:29.856Z,11.98
2023-05-14T06:14:57.798Z,12.04
2023-05-14T06:17:25.383Z,12.14
2023-05-14T06:19:52.942Z,12.20
2023-05-14T06:22:19.670Z,12.27
2023-05-14T06:24:46.199Z,12.38
2023-05-14T06:27:12.737Z,12.50
2023-05-14T06:29:39.203Z,12.57
2023-05-14T06:32:06.180Z,12.64
2023-05-14T06:34:32.726Z,12.68
2023-05-14T06:36:59.433Z,12.82
2023-05-14T06:39:25.965Z,13.10
2023-05-14T06:41:52.459Z,13.30
2023-05-14T06:44:19.534Z,13.34
2023-05-14T06:46:45.967Z,13.36
2023-05-14T06:49:12.499Z,13.32
2023-05-14T06:51:39.078Z,13.41
2023-05-14T06:54:05.598Z,13.55
2023-05-14T06:56:32.075Z,13.59
2023-05-14T06:58:58.522Z,13.58
2023-05-14T07:01:25.015Z,13.70
2023-05-14T07:03:51.520Z,13.79
2023-05-14T07:06:18.016Z,13.80
2023-05-14T07:08:47.294Z,13.77
2023-05-14T07:11:14.550Z,13.70
2023-05-14T07:13:41.758Z,13.94
2023-05-14T07:16:11.694Z,14.11
2023-05-14T07:18:38.419Z,14.15
2023-05-14T07:21:06.471Z,14.11
2023-05-14T07:23:36.074Z,14.16
2023-05-14T07:26:03.323Z,14.23
2023-05-14T07:28:29.841Z,14.12
2023-05-14T07:30:56.311Z,14.28
2023-05-14T07:33:23.480Z,14.51
2023-05-14T07:35:50.427Z,14.65
2023-05-14T07:38:17.326Z,14.55
2023-05-14T07:40:43.904Z,14.62
2023-05-14T07:43:10.758Z,14.65
2023-05-14T07:45:39.032Z,14.74
2023-05-14T07:48:06.111Z,14.90
2023-05-14T07:50:32.796Z,15.05
2023-05-14T07:52:59.315Z,15.13
2023-05-14T07:55:25.919Z,15.30
2023-05-14T07:57:52.372Z,15.46
2023-05-14T08:00:19.177Z,15.56
2023-05-14T08:02:46.101Z,15.56
2023-05-14T08:05:12.832Z,15.62
2023-05-14T08:07:39.314Z,15.57
2023-05-14T08:10:07.735Z,15.49
2023-05-14T08:12:34.386Z,15.42
2023-05-14T08:15:00.923Z,15.45
2023-05-14T08:17:27.426Z,15.40
2023-05-14T08:19:54.150Z,15.42
2023-05-14T08:22:20.654Z,15.45
2023-05-14T08:24:47.133Z,15.55
2023-05-14T08:27:13.656Z,15.59
2023-05-14T08:29:40.655Z,15.69
2023-05-14T08:32:16.053Z,15.82
2023-05-14T08:34:46.241Z,15.89
2023-05-14T08:37:12.777Z,15.98
2023-05-14T08:39:39.339Z,15.91
2023-05-14T08:42:07.984Z,15.98
2023-05-14T08:44:39.746Z,15.97
2023-05-14T08:47:07.050Z,16.02
2023-05-14T08:49:41.461Z,16.08
2023-05-14T08:52:09.838Z,16.09
2023-05-14T08:54:36.573Z,16.21
2023-05-14T08:57:11.130Z,16.17
2023-05-14T08:59:37.877Z,16.25
2023-05-14T09:02:06.354Z,16.35
2023-05-14T09:04:34.483Z,16.34
2023-05-14T09:07:02.184Z,16.29
2023-05-14T09:09:29.165Z,16.32
2023-05-14T09:11:56.118Z,16.38
2023-05-14T09:14:23.446Z,16.54
2023-05-14T09:16:51.333Z,16.62
2023-05-14T09:19:21.862Z,16.66
2023-05-14T09:21:49.589Z,16.72
2023-05-14T09:24:24.016Z,16.74
2023-05-14T09:26:54.411Z,16.76
2023-05-14T09:29:20.929Z,16.80
2023-05-14T09:31:50.054Z,16.86
2023-05-14T09:34:27.256Z,16.88
2023-05-14T09:37:01.802Z,16.94
2023-05-14T09:39:29.519Z,17.01
2023-05-14T09:41:56.720Z,17.17
2023-05-14T09:44:24.030Z,17.32
2023-05-14T09:46:52.179Z,17.46
2023-05-14T09:49:18.733Z,17.52
2023-05-14T09:51:45.330Z,17.55
2023-05-14T09:54:11.951Z,17.72
2023-05-14T09:56:39.623Z,17.76
2023-05-14T09:59:06.377Z,17.67
2023-05-14T10:01:33.334Z,17.62
2023-05-14T10:04:01.073Z,17.69
2023-05-14T10:06:43.853Z,17.74
2023-05-14T10:09:13.117Z,17.83
2023-05-14T10:11:43.813Z,17.89
2023-05-14T10:14:46.419Z,17.88
2023-05-14T10:17:18.429Z,17.87
2023-05-14T10:19:53.567Z,17.97
2023-05-14T10:22:23.599Z,18.03
2023-05-14T10:24:54.112Z,18.11
2023-05-14T10:27:21.936Z,18.23
2023-05-14T10:29:56.232Z,18.26
2023-05-14T10:32:25.490Z,18.28
2023-05-14T10:34:55.706Z,18.27
2023-05-14T10:37:25.428Z,18.26
2023-05-14T10:40:02.559Z,18.28
2023-05-14T10:42:35.844Z,18.28
2023-05-14T10:45:07.384Z,18.36
2023-05-14T10:47:38.663Z,18.45
2023-05-14T10:50:07.563Z,18.52
2023-05-14T10:52:35.167Z,18.50
2023-05-14T10:55:04.025Z,18.60
2023-05-14T10:57:32.215Z,18.65
2023-05-14T11:00:00.991Z,18.63
2023-05-14T11:02:30.021Z,18.65
2023-05-14T11:05:03.884Z,18.83
2023-05-14T11:07:35.947Z,18.94
2023-05-14T11:10:03.890Z,19.02
2023-05-14T11:12:31.122Z,19.12
2023-05-14T11:14:59.266Z,19.37
2023-05-14T11:17:27.199Z,19.48
2023-05-14T11:19:54.417Z,19.44
2023-05-14T11:22:21.167Z,19.57
2023-05-14T11:24:47.696Z,19.68
2023-05-14T11:27:14.202Z,19.75
2023-05-14T11:29:46.094Z,19.78
2023-05-14T11:32:13.570Z,19.83
2023-05-14T11:34:40.790Z,19.73
2023-05-14T11:37:08.695Z,19.72
2023-05-14T11:39:37.443Z,19.76
2023-05-14T11:42:05.828Z,19.82
2023-05-14T11:44:32.819Z,19.75
2023-05-14T11:47:01.223Z,19.81
2023-05-14T11:49:32.347Z,19.82
2023-05-14T11:52:06.619Z,19.78
2023-05-14T11:54:34.224Z,19.82
2023-05-14T11:57:03.140Z,19.78
2023-05-14T11:59:32.086Z,19.83
2023-05-14T12:01:59.194Z,19.72
2023-05-14T12:04:26.154Z,19.67
2023-05-14T12:06:53.242Z,19.72
2023-05-14T12:09:20.894Z,19.79
2023-05-14T12:11:52.740Z,19.87
2023-05-14T12:14:21.166Z,19.82
2023-05-14T12:16:48.675Z,19.92
2023-05-14T12:19:16.582Z,20.05
2023-05-14T12:21:44.129Z,20.13
2023-05-14T12:24:12.544Z,20.04
2023-05-14T12:26:39.525Z,20.04
2023-05-14T12:29:09.006Z,20.13
2023-05-14T12:31:36.566Z,20.12
2023-05-14T12:34:04.301Z,20.22
2023-05-14T12:36:32.855Z,20.30
2023-05-14T12:39:03.804Z,20.27
2023-05-14T12:41:31.232Z,20.33
2023-05-14T12:43:58.763Z,20.35
2023-05-14T12:46:26.835Z,20.41
2023-05-14T12:48:54.373Z,20.40
2023-05-14T12:51:20.959Z,20.55
2023-05-14T12:53:48.117Z,20.65
2023-05-14T12:56:14.882Z,20.65
2023-05-14T12:58:41.630Z,20.60
2023-05-14T13:01:08.689Z,20.58
2023-05-14T13:03:35.254Z,20.63
2023-05-14T13:06:01.752Z,20.76
2023-05-14T13:08:28.263Z,20.67
2023-05-14T13:10:55.777Z,20.58
2023-05-14T13:13:23.159Z,20.61
2023-05-14T13:15:49.950Z,20.72
2023-05-14T13:18:18.097Z,20.82
2023-05-14T13:20:47.264Z,20.82
2023-05-14T13:23:14.448Z,20.77
2023-05-14T13:25:41.052Z,20.83
2023-05-14T13:28:08.659Z,21.06
2023-05-14T13:30:35.200Z,21.08
2023-05-14T13:33:01.774Z,21.11
2023-05-14T13:35:28.289Z,21.17
2023-05-14T13:37:54.759Z,21.25
2023-05-14T13:40:21.343Z,21.24
2023-05-14T13:42:47.863Z,21.27
2023-05-14T13:45:14.492Z,21.26
2023-05-14T13:47:41.380Z,21.45
2023-05-14T13:50:08.302Z,21.59
2023-05-14T13:52:34.838Z,21.72
2023-05-14T13:55:01.600Z,21.60
2023-05-14T13:57:28.071Z,21.54
2023-05-14T13:59:54.584Z,21.60
2023-05-14T14:02:21.127Z,21.70
2023-05-14T14:04:47.746Z,21.63
2023-05-14T14:07:14.476Z,21.68
2023-05-14T14:09:41.226Z,21.65
2023-05-14T14:12:09.090Z,21.57
2023-05-14T14:14:35.698Z,21.49
2023-05-14T14:17:02.229Z,21.31
2023-05-14T14:19:28.719Z,21.17
2023-05-14T14:21:55.249Z,21.24
2023-05-14T14:24:21.804Z,21.31
2023-05-14T14:26:48.290Z,21.36
2023-05-14T14:29:14.803Z,21.37
2023-05-14T14:31:41.345Z,21.37
2023-05-14T14:34:08.077Z,21.31
2023-05-14T14:36:34.583Z,21.34
2023-05-14T14:39:01.053Z,21.30
2023-05-14T14:41:27.608Z,21.42
2023-05-14T14:43:54.061Z,21.56
2023-05-14T14:46:20.655Z,21.54
2023-05-14T14:48:47.244Z,21.75
2023-05-14T14:51:13.785Z,21.81
2023-05-14T14:53:40.600Z,21.90
2023-05-14T14:56:07.311Z,21.89
2023-05-14T14:58:33.913Z,21.89
2023-05-14T15:01:01.295Z,21.82
2023-05-14T15:03:28.294Z,21.81
2023-05-14T15:05:54.838Z,21.81
2023-05-14T15:08:25.275Z,21.76
2023-05-14T15:10:52.132Z,21.53
2023-05-14T15:13:19.000Z,21.41
2023-05-14T15:15:45.504Z,21.15
2023-05-14T15:18:12.104Z,21.13
2023-05-14T15:20:38.769Z,21.10
2023-05-14T15:23:05.794Z,21.08
2023-05-14T15:25:32.283Z,21.22
2023-05-14T15:27:58.766Z,21.25
2023-05-14T15:30:25.318Z,21.17
2023-05-14T15:32:52.240Z,21.01
2023-05-14T15:35:18.983Z,20.92
2023-05-14T15:37:45.560Z,20.91
2023-05-14T15:40:12.469Z,20.72
2023-05-14T15:42:42.085Z,20.76
2023-05-14T15:45:10.344Z,20.74
2023-05-14T15:47:36.889Z,20.60
2023-05-14T15:50:03.931Z,20.46
2023-05-14T15:52:30.819Z,20.39
2023-05-14T15:54:59.419Z,20.23
2023-05-14T15:57:26.156Z,20.14
2023-05-14T15:59:52.659Z,20.01
2023-05-14T16:02:19.104Z,19.87
2023-05-14T16:04:45.547Z,19.69
2023-05-14T16:07:12.218Z,19.62
2023-05-14T16:09:39.238Z,19.64
2023-05-14T16:12:06.853Z,19.53
2023-05-14T16:14:36.396Z,19.39
2023-05-14T16:17:02.934Z,19.22
2023-05-14T16:19:29.580Z,19.17
2023-05-14T16:21:56.228Z,19.12
2023-05-14T16:24:22.716Z,19.07
2023-05-14T16:26:49.218Z,19.00
2023-05-14T16:29:15.880Z,18.92
2023-05-14T16:31:42.367Z,18.87
2023-05-14T16:34:08.852Z,18.88
2023-05-14T16:36:35.396Z,18.93
2023-05-14T16:41:31.227Z,18.78
2023-05-14T16:43:57.650Z,18.79
2023-05-14T16:46:24.306Z,18.78
2023-05-14T16:48:50.819Z,18.74
2023-05-14T16:51:17.398Z,18.73
2023-05-14T16:53:43.873Z,18.63
2023-05-14T16:56:11.038Z,18.53
2023-05-14T16:58:38.324Z,18.50
2023-05-14T17:01:05.881Z,18.47
2023-05-14T17:03:33.320Z,18.37
2023-05-14T17:06:00.213Z,18.31
2023-05-14T17:08:31.767Z,18.24
2023-05-14T17:10:58.336Z,18.21
2023-05-14T17:13:24.865Z,18.10
2023-05-14T17:15:51.364Z,18.06
2023-05-14T17:18:17.885Z,17.98
2023-05-14T17:20:44.434Z,17.90
2023-05-14T17:23:10.883Z,17.75
2023-05-14T17:25:37.340Z,17.62
2023-05-14T17:28:03.881Z,17.54
2023-05-14T17:30:30.341Z,17.47
2023-05-14T17:32:56.929Z,17.28
2023-05-14T17:35:23.735Z,17.17
2023-05-14T17:37:50.441Z,17.01
2023-05-14T17:40:17.062Z,16.88
2023-05-14T17:42:45.512Z,16.82
2023-05-14T17:45:13.233Z,16.73
2023-05-14T17:47:39.804Z,16.62
2023-05-14T17:50:07.148Z,16.59
2023-05-14T17:52:33.631Z,16.57
2023-05-14T17:55:00.205Z,16.55
2023-05-14T17:57:27.036Z,16.43
2023-05-14T17:59:53.511Z,16.26
2023-05-14T18:02:19.960Z,16.27
2023-05-14T18:04:46.716Z,16.23
2023-05-14T18:07:13.422Z,16.19
2023-05-14T18:09:39.890Z,16.04
2023-05-14T18:12:06.866Z,15.98
2023-05-14T18:14:33.344Z,15.92
2023-05-14T18:16:59.936Z,15.85
2023-05-14T18:19:26.429Z,15.80
2023-05-14T18:21:55.375Z,15.75
2023-05-14T18:24:22.313Z,15.71
2023-05-14T18:26:49.765Z,15.63
2023-05-14T18:29:16.176Z,15.46
2023-05-14T18:31:42.661Z,15.48
2023-05-14T18:34:09.149Z,15.40
2023-05-14T18:36:35.780Z,15.29
2023-05-14T18:39:02.209Z,15.20
2023-05-14T18:41:28.744Z,15.17
2023-05-14T18:43:55.294Z,15.10
2023-05-14T18:46:21.851Z,15.05
2023-05-14T18:48:48.342Z,15.05
2023-05-14T18:51:14.824Z,15.04
2023-05-14T18:53:41.361Z,14.99
2023-05-14T18:56:09.495Z,14.93
2023-05-14T18:58:36.012Z,14.86
2023-05-14T19:01:02.487Z,14.84
2023-05-14T19:03:29.128Z,14.79
2023-05-14T19:05:55.693Z,14.75
2023-05-14T19:08:22.272Z,14.69
2023-05-14T19:10:48.747Z,14.67
2023-05-14T19:13:18.349Z,14.60
2023-05-14T19:15:44.867Z,14.53
2023-05-14T19:18:12.976Z,14.49
2023-05-14T19:20:39.479Z,14.43
2023-05-14T19:23:05.969Z,14.37
2023-05-14T19:25:33.673Z,14.28
2023-05-14T19:28:02.117Z,14.27
2023-05-14T19:30:28.587Z,14.16
2023-05-14T19:32:55.186Z,14.07
2023-05-14T19:35:22.150Z,14.01
2023-05-14T19:37:48.803Z,13.91
2023-05-14T19:40:15.407Z,13.87
2023-05-14T19:42:42.240Z,13.84
2023-05-14T19:45:08.996Z,13.78
2023-05-14T19:47:35.624Z,13.68
2023-05-14T19:50:02.105Z,13.62
2023-05-14T19:52:28.576Z,13.63
2023-05-14T19:54:55.070Z,13.56
2023-05-14T19:57:21.696Z,13.51
2023-05-14T19:59:48.188Z,13.46
2023-05-14T20:02:18.189Z,13.44
2023-05-14T20:04:45.952Z,13.43
2023-05-14T20:07:13.996Z,13.44
2023-05-14T20:09:40.560Z,13.34
2023-05-14T20:12:07.594Z,13.35
2023-05-14T20:14:34.129Z,13.31
2023-05-14T20:17:00.818Z,13.29
2023-05-14T20:19:30.156Z,13.29
2023-05-14T20:21:56.909Z,13.25
2023-05-14T20:24:23.480Z,13.24
2023-05-14T20:26:50.427Z,13.20
2023-05-14T20:29:16.914Z,13.17
2023-05-14T20:31:43.444Z,13.15
2023-05-14T20:34:09.918Z,13.07
2023-05-14T20:36:37.417Z,13.08
2023-05-14T20:39:06.107Z,13.06
2023-05-14T20:41:32.668Z,13.01
2023-05-14T20:43:59.166Z,13.01
2023-05-14T20:46:25.932Z,13.03
2023-05-14T20:48:55.281Z,12.99
2023-05-14T20:51:21.840Z,12.94
2023-05-14T20:53:48.368Z,12.94
2023-05-14T20:56:14.863Z,12.93
2023-05-14T20:58:41.297Z,12.93
2023-05-14T21:01:08.192Z,12.90
2023-05-14T21:03:34.950Z,12.92
2023-05-14T21:06:02.657Z,12.88
2023-05-14T21:08:30.072Z,12.86
2023-05-14T21:10:56.560Z,12.85
2023-05-14T21:13:23.131Z,12.86
2023-05-14T21:15:49.795Z,12.89
2023-05-14T21:18:16.303Z,12.91
2023-05-14T21:20:42.806Z,12.93
2023-05-14T21:23:09.287Z,12.93
2023-05-14T21:25:35.854Z,12.92
2023-05-14T21:28:02.355Z,12.91
2023-05-14T21:30:28.870Z,12.85
2023-05-14T21:32:55.540Z,12.82
2023-05-14T21:35:23.193Z,12.77
2023-05-14T21:37:49.969Z,12.74
2023-05-14T21:40:16.429Z,12.69
2023-05-14T21:42:43.088Z,12.70
2023-05-14T21:45:09.991Z,12.69
2023-05-14T21:47:37.160Z,12.67
2023-05-14T21:50:04.856Z,12.64
2023-05-14T21:52:31.329Z,12.66
2023-05-14T21:54:57.821Z,12.62
2023-05-14T21:57:25.653Z,12.58
2023-05-14T21:59:53.662Z,12.55
2023-05-14T22:02:20.162Z,12.54
2023-05-14T22:04:46.865Z,12.54
2023-05-14T22:07:13.426Z,12.50
2023-05-14T22:09:39.841Z,12.47
2023-05-14T22:12:07.083Z,12.50
2023-05-14T22:14:33.653Z,12.48
2023-05-14T22:17:00.385Z,12.44
2023-05-14T22:19:27.819Z,12.47
2023-05-14T22:21:54.492Z,12.46
2023-05-14T22:24:21.028Z,12.39
2023-05-14T22:26:47.543Z,12.34
2023-05-14T22:29:13.995Z,12.30
2023-05-14T22:31:40.524Z,12.25
2023-05-14T22:34:07.052Z,12.28
2023-05-14T22:36:33.606Z,12.28
2023-05-14T22:39:00.052Z,12.27
2023-05-14T22:41:26.686Z,12.29
2023-05-14T22:43:53.165Z,12.28
2023-05-14T22:46:20.320Z,12.22
2023-05-14T22:48:48.964Z,12.23
2023-05-14T22:51:16.263Z,12.19
2023-05-14T22:53:42.735Z,12.14
2023-05-14T22:56:09.291Z,12.10
2023-05-14T22:58:35.923Z,12.08
2023-05-14T23:01:02.476Z,12.06
2023-05-14T23:03:29.610Z,12.04
2023-05-14T23:05:56.126Z,12.06
2023-05-14T23:08:22.606Z,12.05
2023-05-14T23:10:49.100Z,12.04
2023-05-14T23:13:15.652Z,12.03
2023-05-14T23:15:42.836Z,11.98
2023-05-14T23:18:09.422Z,11.97
2023-05-14T23:20:35.921Z,12.01
2023-05-14T23:23:02.331Z,12.03
2023-05-14T23:25:28.885Z,12.05
2023-05-14T23:27:55.504Z,12.03
2023-05-14T23:30:22.055Z,12.03
2023-05-14T23:32:48.560Z,12.01
2023-05-14T23:35:16.358Z,12.01
2023-05-14T23:37:47.196Z,12.06
2023-05-14T23:40:14.198Z,12.02
2023-05-14T23:42:40.718Z,12.05
2023-05-14T23:45:07.863Z,12.05
2023-05-14T23:47:34.654Z,12.03
2023-05-14T23:50:01.199Z,12.03
2023-05-14T23:52:27.671Z,11.97
2023-05-14T23:54:54.253Z,11.91
2023-05-14T23:57:20.927Z,11.88
2023-05-14T23:59:47.378Z,11.85
